sensor_id;sensor_type;location;lat;lon;timestamp;temperature;humidity
22418;DHT22;11376;50.932;4.442;2022-12-29T00:00:52;11.80;99.90
22418;DHT22;11376;50.932;4.442;2022-12-29T00:03:17;11.80;99.90
22418;DHT22;11376;50.932;4.442;2022-12-29T00:05:43;11.80;99.90
22418;DHT22;11376;50.932;4.442;2022-12-29T00:08:08;11.90;99.90
22418;DHT22;11376;50.932;4.442;2022-12-29T00:10:34;12.00;99.90
22418;DHT22;11376;50.932;4.442;2022-12-29T00:12:59;12.00;99.90
22418;DHT22;11376;50.932;4.442;2022-12-29T00:15:43;11.90;99.90
22418;DHT22;11376;50.932;4.442;2022-12-29T00:18:09;11.90;99.90
22418;DHT22;11376;50.932;4.442;2022-12-29T00:20:36;12.00;99.90
22418;DHT22;11376;50.932;4.442;2022-12-29T00:23:21;12.00;99.90
22418;DHT22;11376;50.932;4.442;2022-12-29T00:26:12;12.10;99.90
22418;DHT22;11376;50.932;4.442;2022-12-29T00:28:56;12.10;99.90
22418;DHT22;11376;50.932;4.442;2022-12-29T00:31:40;12.00;99.90
22418;DHT22;11376;50.932;4.442;2022-12-29T00:34:24;12.00;99.90
22418;DHT22;11376;50.932;4.442;2022-12-29T00:37:08;12.20;99.90
22418;DHT22;11376;50.932;4.442;2022-12-29T00:39:34;12.30;99.90
22418;DHT22;11376;50.932;4.442;2022-12-29T00:42:18;12.30;99.90
22418;DHT22;11376;50.932;4.442;2022-12-29T00:45:04;12.30;99.90
22418;DHT22;11376;50.932;4.442;2022-12-29T00:47:29;12.40;99.90
22418;DHT22;11376;50.932;4.442;2022-12-29T00:49:55;12.40;99.90
22418;DHT22;11376;50.932;4.442;2022-12-29T00:52:20;12.40;99.90
22418;DHT22;11376;50.932;4.442;2022-12-29T00:54:46;12.40;99.90
22418;DHT22;11376;50.932;4.442;2022-12-29T00:57:12;12.50;99.90
22418;DHT22;11376;50.932;4.442;2022-12-29T00:59:39;12.50;99.90
22418;DHT22;11376;50.932;4.442;2022-12-29T01:02:06;12.50;99.90
22418;DHT22;11376;50.932;4.442;2022-12-29T01:04:32;12.50;99.90
22418;DHT22;11376;50.932;4.442;2022-12-29T01:06:58;12.50;99.90
22418;DHT22;11376;50.932;4.442;2022-12-29T01:09:24;12.50;99.90
22418;DHT22;11376;50.932;4.442;2022-12-29T01:12:09;12.40;99.90
22418;DHT22;11376;50.932;4.442;2022-12-29T01:14:36;12.30;99.90
22418;DHT22;11376;50.932;4.442;2022-12-29T01:17:02;12.30;99.90
22418;DHT22;11376;50.932;4.442;2022-12-29T01:19:27;12.30;99.90
22418;DHT22;11376;50.932;4.442;2022-12-29T01:21:53;12.30;99.90
22418;DHT22;11376;50.932;4.442;2022-12-29T01:24:21;12.20;99.90
22418;DHT22;11376;50.932;4.442;2022-12-29T01:26:47;12.10;99.90
22418;DHT22;11376;50.932;4.442;2022-12-29T01:29:13;12.00;99.90
22418;DHT22;11376;50.932;4.442;2022-12-29T01:31:39;12.00;99.90
22418;DHT22;11376;50.932;4.442;2022-12-29T01:34:05;11.90;99.90
22418;DHT22;11376;50.932;4.442;2022-12-29T01:36:31;11.80;99.90
22418;DHT22;11376;50.932;4.442;2022-12-29T01:38:57;11.80;99.90
22418;DHT22;11376;50.932;4.442;2022-12-29T01:41:23;11.80;99.90
22418;DHT22;11376;50.932;4.442;2022-12-29T01:43:51;11.60;99.90
22418;DHT22;11376;50.932;4.442;2022-12-29T01:48:55;11.50;99.90
22418;DHT22;11376;50.932;4.442;2022-12-29T01:51:24;11.40;99.90
22418;DHT22;11376;50.932;4.442;2022-12-29T01:53:52;11.40;99.90
22418;DHT22;11376;50.932;4.442;2022-12-29T01:56:20;11.40;99.90
22418;DHT22;11376;50.932;4.442;2022-12-29T01:58:49;11.40;99.90
22418;DHT22;11376;50.932;4.442;2022-12-29T02:01:19;11.40;99.90
22418;DHT22;11376;50.932;4.442;2022-12-29T02:03:45;11.40;99.90
22418;DHT22;11376;50.932;4.442;2022-12-29T02:06:27;11.40;99.90
22418;DHT22;11376;50.932;4.442;2022-12-29T02:08:55;11.50;99.90
22418;DHT22;11376;50.932;4.442;2022-12-29T02:11:23;11.50;99.90
22418;DHT22;11376;50.932;4.442;2022-12-29T02:13:50;11.40;99.90
22418;DHT22;11376;50.932;4.442;2022-12-29T02:28:00;10.80;99.90
22418;DHT22;11376;50.932;4.442;2022-12-29T02:32:46;10.40;99.90
22418;DHT22;11376;50.932;4.442;2022-12-29T02:41:19;10.30;99.90
22418;DHT22;11376;50.932;4.442;2022-12-29T02:44:04;10.20;99.90
22418;DHT22;11376;50.932;4.442;2022-12-29T02:46:53;10.30;99.90
22418;DHT22;11376;50.932;4.442;2022-12-29T02:52:11;10.30;99.90
22418;DHT22;11376;50.932;4.442;2022-12-29T02:54:40;10.30;99.90
22418;DHT22;11376;50.932;4.442;2022-12-29T02:57:29;10.30;99.90
22418;DHT22;11376;50.932;4.442;2022-12-29T03:00:13;10.30;99.90
22418;DHT22;11376;50.932;4.442;2022-12-29T03:08:44;10.30;99.90
22418;DHT22;11376;50.932;4.442;2022-12-29T03:11:12;10.20;99.90
22418;DHT22;11376;50.932;4.442;2022-12-29T03:14:26;10.20;99.90
22418;DHT22;11376;50.932;4.442;2022-12-29T03:20:07;10.00;99.90
22418;DHT22;11376;50.932;4.442;2022-12-29T03:22:38;9.90;99.90
22418;DHT22;11376;50.932;4.442;2022-12-29T03:25:29;9.90;99.90
22418;DHT22;11376;50.932;4.442;2022-12-29T03:28:01;10.00;99.90
22418;DHT22;11376;50.932;4.442;2022-12-29T03:30:29;10.10;99.90
22418;DHT22;11376;50.932;4.442;2022-12-29T03:33:00;10.10;99.90
22418;DHT22;11376;50.932;4.442;2022-12-29T03:35:29;10.10;99.90
22418;DHT22;11376;50.932;4.442;2022-12-29T03:38:02;10.00;99.90
22418;DHT22;11376;50.932;4.442;2022-12-29T03:40:31;10.10;99.90
22418;DHT22;11376;50.932;4.442;2022-12-29T03:42:57;10.20;99.90
22418;DHT22;11376;50.932;4.442;2022-12-29T03:45:23;10.10;99.90
22418;DHT22;11376;50.932;4.442;2022-12-29T03:47:49;10.20;99.90
22418;DHT22;11376;50.932;4.442;2022-12-29T03:50:15;10.30;99.90
22418;DHT22;11376;50.932;4.442;2022-12-29T03:52:41;10.20;99.90
22418;DHT22;11376;50.932;4.442;2022-12-29T03:55:07;10.30;99.90
22418;DHT22;11376;50.932;4.442;2022-12-29T03:57:33;10.40;99.90
22418;DHT22;11376;50.932;4.442;2022-12-29T03:59:58;10.40;99.90
22418;DHT22;11376;50.932;4.442;2022-12-29T04:02:24;10.50;99.90
22418;DHT22;11376;50.932;4.442;2022-12-29T04:04:49;10.50;99.90
22418;DHT22;11376;50.932;4.442;2022-12-29T04:07:15;10.50;99.90
22418;DHT22;11376;50.932;4.442;2022-12-29T04:09:40;10.50;99.90
22418;DHT22;11376;50.932;4.442;2022-12-29T04:12:06;10.50;99.90
22418;DHT22;11376;50.932;4.442;2022-12-29T04:14:32;10.50;99.90
22418;DHT22;11376;50.932;4.442;2022-12-29T04:16:57;10.60;99.90
22418;DHT22;11376;50.932;4.442;2022-12-29T04:19:23;10.50;99.90
22418;DHT22;11376;50.932;4.442;2022-12-29T04:21:48;10.50;99.90
22418;DHT22;11376;50.932;4.442;2022-12-29T04:24:14;10.50;99.90
22418;DHT22;11376;50.932;4.442;2022-12-29T04:26:40;10.40;99.90
22418;DHT22;11376;50.932;4.442;2022-12-29T04:29:06;10.50;99.90
22418;DHT22;11376;50.932;4.442;2022-12-29T04:31:32;10.40;99.90
22418;DHT22;11376;50.932;4.442;2022-12-29T04:33:57;10.50;99.90
22418;DHT22;11376;50.932;4.442;2022-12-29T04:36:23;10.40;99.90
22418;DHT22;11376;50.932;4.442;2022-12-29T04:38:49;10.40;99.90
22418;DHT22;11376;50.932;4.442;2022-12-29T04:41:14;10.40;99.90
22418;DHT22;11376;50.932;4.442;2022-12-29T04:43:40;10.40;99.90
22418;DHT22;11376;50.932;4.442;2022-12-29T04:46:05;10.50;99.90
22418;DHT22;11376;50.932;4.442;2022-12-29T04:48:31;10.50;99.90
22418;DHT22;11376;50.932;4.442;2022-12-29T04:50:57;10.50;99.90
22418;DHT22;11376;50.932;4.442;2022-12-29T04:53:23;10.50;99.90
22418;DHT22;11376;50.932;4.442;2022-12-29T04:55:50;10.50;99.90
22418;DHT22;11376;50.932;4.442;2022-12-29T04:58:17;10.50;99.90
22418;DHT22;11376;50.932;4.442;2022-12-29T05:00:42;10.50;99.90
22418;DHT22;11376;50.932;4.442;2022-12-29T05:03:08;10.40;99.90
22418;DHT22;11376;50.932;4.442;2022-12-29T05:05:33;10.40;99.90
22418;DHT22;11376;50.932;4.442;2022-12-29T05:07:59;10.50;99.90
22418;DHT22;11376;50.932;4.442;2022-12-29T05:10:24;10.60;99.90
22418;DHT22;11376;50.932;4.442;2022-12-29T05:12:51;10.60;99.90
22418;DHT22;11376;50.932;4.442;2022-12-29T05:15:17;10.50;99.90
22418;DHT22;11376;50.932;4.442;2022-12-29T05:17:42;10.60;99.90
22418;DHT22;11376;50.932;4.442;2022-12-29T05:20:09;10.70;99.90
22418;DHT22;11376;50.932;4.442;2022-12-29T05:22:34;10.60;99.90
22418;DHT22;11376;50.932;4.442;2022-12-29T05:25:00;10.70;99.90
22418;DHT22;11376;50.932;4.442;2022-12-29T05:27:26;10.80;99.90
22418;DHT22;11376;50.932;4.442;2022-12-29T05:29:51;10.80;99.90
22418;DHT22;11376;50.932;4.442;2022-12-29T05:32:17;10.80;99.90
22418;DHT22;11376;50.932;4.442;2022-12-29T05:34:42;10.90;99.90
22418;DHT22;11376;50.932;4.442;2022-12-29T05:37:08;10.90;99.90
22418;DHT22;11376;50.932;4.442;2022-12-29T05:39:33;10.90;99.90
22418;DHT22;11376;50.932;4.442;2022-12-29T05:41:59;10.90;99.90
22418;DHT22;11376;50.932;4.442;2022-12-29T05:44:25;11.00;99.90
22418;DHT22;11376;50.932;4.442;2022-12-29T05:46:50;11.00;99.90
22418;DHT22;11376;50.932;4.442;2022-12-29T05:49:16;11.00;99.90
22418;DHT22;11376;50.932;4.442;2022-12-29T05:51:42;11.00;99.90
22418;DHT22;11376;50.932;4.442;2022-12-29T05:54:07;10.90;99.90
22418;DHT22;11376;50.932;4.442;2022-12-29T05:56:33;10.90;99.90
22418;DHT22;11376;50.932;4.442;2022-12-29T05:58:59;10.80;99.90
22418;DHT22;11376;50.932;4.442;2022-12-29T06:01:24;10.90;99.90
22418;DHT22;11376;50.932;4.442;2022-12-29T06:03:50;10.90;99.90
22418;DHT22;11376;50.932;4.442;2022-12-29T06:06:15;10.90;99.90
22418;DHT22;11376;50.932;4.442;2022-12-29T06:08:41;10.90;99.90
22418;DHT22;11376;50.932;4.442;2022-12-29T06:11:07;11.00;99.90
22418;DHT22;11376;50.932;4.442;2022-12-29T06:13:32;10.80;99.90
22418;DHT22;11376;50.932;4.442;2022-12-29T06:15:58;10.80;99.90
22418;DHT22;11376;50.932;4.442;2022-12-29T06:18:23;10.80;99.90
22418;DHT22;11376;50.932;4.442;2022-12-29T06:20:49;10.70;99.90
22418;DHT22;11376;50.932;4.442;2022-12-29T06:23:14;10.80;99.90
22418;DHT22;11376;50.932;4.442;2022-12-29T06:25:41;10.80;99.90
22418;DHT22;11376;50.932;4.442;2022-12-29T06:28:07;10.80;99.90
22418;DHT22;11376;50.932;4.442;2022-12-29T06:30:33;10.80;99.90
22418;DHT22;11376;50.932;4.442;2022-12-29T06:32:59;10.70;99.90
22418;DHT22;11376;50.932;4.442;2022-12-29T06:35:25;10.80;99.90
22418;DHT22;11376;50.932;4.442;2022-12-29T06:37:51;10.80;99.90
22418;DHT22;11376;50.932;4.442;2022-12-29T06:40:17;10.80;99.90
22418;DHT22;11376;50.932;4.442;2022-12-29T06:42:43;10.90;99.90
22418;DHT22;11376;50.932;4.442;2022-12-29T06:45:09;10.90;99.90
22418;DHT22;11376;50.932;4.442;2022-12-29T06:47:35;10.90;99.90
22418;DHT22;11376;50.932;4.442;2022-12-29T06:50:01;10.90;99.90
22418;DHT22;11376;50.932;4.442;2022-12-29T06:52:26;11.00;99.90
22418;DHT22;11376;50.932;4.442;2022-12-29T06:54:54;11.00;99.90
22418;DHT22;11376;50.932;4.442;2022-12-29T06:57:19;11.00;99.90
22418;DHT22;11376;50.932;4.442;2022-12-29T06:59:45;10.90;99.90
22418;DHT22;11376;50.932;4.442;2022-12-29T07:02:11;10.90;99.90
22418;DHT22;11376;50.932;4.442;2022-12-29T07:04:36;10.90;99.90
22418;DHT22;11376;50.932;4.442;2022-12-29T07:07:02;11.00;99.90
22418;DHT22;11376;50.932;4.442;2022-12-29T07:09:28;11.00;99.90
22418;DHT22;11376;50.932;4.442;2022-12-29T07:11:54;11.00;99.90
22418;DHT22;11376;50.932;4.442;2022-12-29T07:14:19;11.00;99.90
22418;DHT22;11376;50.932;4.442;2022-12-29T07:16:45;11.00;99.90
22418;DHT22;11376;50.932;4.442;2022-12-29T07:19:10;11.00;99.90
22418;DHT22;11376;50.932;4.442;2022-12-29T07:21:36;11.00;99.90
22418;DHT22;11376;50.932;4.442;2022-12-29T07:24:02;11.00;99.90
22418;DHT22;11376;50.932;4.442;2022-12-29T07:26:27;11.10;99.90
22418;DHT22;11376;50.932;4.442;2022-12-29T07:28:53;11.10;99.90
22418;DHT22;11376;50.932;4.442;2022-12-29T07:31:21;11.10;99.90
22418;DHT22;11376;50.932;4.442;2022-12-29T07:33:47;11.10;99.90
22418;DHT22;11376;50.932;4.442;2022-12-29T07:36:15;11.10;99.90
22418;DHT22;11376;50.932;4.442;2022-12-29T07:38:42;11.10;99.90
22418;DHT22;11376;50.932;4.442;2022-12-29T07:41:08;11.10;99.90
22418;DHT22;11376;50.932;4.442;2022-12-29T07:43:34;11.10;99.90
22418;DHT22;11376;50.932;4.442;2022-12-29T07:46:00;11.10;99.90
22418;DHT22;11376;50.932;4.442;2022-12-29T07:48:25;11.10;99.90
22418;DHT22;11376;50.932;4.442;2022-12-29T07:50:52;11.00;99.90
22418;DHT22;11376;50.932;4.442;2022-12-29T07:53:17;11.00;99.90
22418;DHT22;11376;50.932;4.442;2022-12-29T07:55:43;11.10;99.90
22418;DHT22;11376;50.932;4.442;2022-12-29T07:58:09;11.10;99.90
22418;DHT22;11376;50.932;4.442;2022-12-29T08:00:34;11.10;99.90
22418;DHT22;11376;50.932;4.442;2022-12-29T08:03:00;11.10;99.90
22418;DHT22;11376;50.932;4.442;2022-12-29T08:05:25;11.10;99.90
22418;DHT22;11376;50.932;4.442;2022-12-29T08:07:51;11.10;99.90
22418;DHT22;11376;50.932;4.442;2022-12-29T08:10:17;11.10;99.90
22418;DHT22;11376;50.932;4.442;2022-12-29T08:12:42;11.20;99.90
22418;DHT22;11376;50.932;4.442;2022-12-29T08:15:10;11.10;99.90
22418;DHT22;11376;50.932;4.442;2022-12-29T08:17:35;11.20;99.90
22418;DHT22;11376;50.932;4.442;2022-12-29T08:20:01;11.20;99.90
22418;DHT22;11376;50.932;4.442;2022-12-29T08:22:27;11.10;99.90
22418;DHT22;11376;50.932;4.442;2022-12-29T08:24:53;11.10;99.90
22418;DHT22;11376;50.932;4.442;2022-12-29T08:27:18;11.20;99.90
22418;DHT22;11376;50.932;4.442;2022-12-29T08:29:44;11.10;99.90
22418;DHT22;11376;50.932;4.442;2022-12-29T08:32:11;11.20;99.90
22418;DHT22;11376;50.932;4.442;2022-12-29T08:34:37;11.20;99.90
22418;DHT22;11376;50.932;4.442;2022-12-29T08:37:02;11.20;99.90
22418;DHT22;11376;50.932;4.442;2022-12-29T08:39:28;11.20;99.90
22418;DHT22;11376;50.932;4.442;2022-12-29T08:41:54;11.10;99.90
22418;DHT22;11376;50.932;4.442;2022-12-29T08:44:20;11.10;99.90
22418;DHT22;11376;50.932;4.442;2022-12-29T08:46:45;11.20;99.90
22418;DHT22;11376;50.932;4.442;2022-12-29T08:49:11;11.10;99.90
22418;DHT22;11376;50.932;4.442;2022-12-29T08:51:36;11.20;99.90
22418;DHT22;11376;50.932;4.442;2022-12-29T08:54:02;11.00;99.90
22418;DHT22;11376;50.932;4.442;2022-12-29T08:56:28;10.90;99.90
22418;DHT22;11376;50.932;4.442;2022-12-29T08:58:54;10.80;99.90
22418;DHT22;11376;50.932;4.442;2022-12-29T09:01:20;10.80;99.90
22418;DHT22;11376;50.932;4.442;2022-12-29T09:03:45;10.70;99.90
22418;DHT22;11376;50.932;4.442;2022-12-29T09:06:12;10.80;99.90
22418;DHT22;11376;50.932;4.442;2022-12-29T09:08:37;10.80;99.90
22418;DHT22;11376;50.932;4.442;2022-12-29T09:13:36;10.80;99.90
22418;DHT22;11376;50.932;4.442;2022-12-29T09:16:02;10.70;99.90
22418;DHT22;11376;50.932;4.442;2022-12-29T09:18:28;10.50;99.90
22418;DHT22;11376;50.932;4.442;2022-12-29T09:20:59;10.40;99.90
22418;DHT22;11376;50.932;4.442;2022-12-29T09:23:25;10.30;99.90
22418;DHT22;11376;50.932;4.442;2022-12-29T09:25:51;10.20;99.90
22418;DHT22;11376;50.932;4.442;2022-12-29T09:28:17;10.30;99.90
22418;DHT22;11376;50.932;4.442;2022-12-29T09:30:42;10.30;99.90
22418;DHT22;11376;50.932;4.442;2022-12-29T09:33:08;10.40;99.90
22418;DHT22;11376;50.932;4.442;2022-12-29T09:35:33;10.40;99.90
22418;DHT22;11376;50.932;4.442;2022-12-29T09:37:59;10.40;99.90
22418;DHT22;11376;50.932;4.442;2022-12-29T09:40:28;10.30;99.90
22418;DHT22;11376;50.932;4.442;2022-12-29T09:46:15;10.20;99.90
22418;DHT22;11376;50.932;4.442;2022-12-29T09:48:37;10.20;99.90
22418;DHT22;11376;50.932;4.442;2022-12-29T09:51:10;10.00;99.90
22418;DHT22;11376;50.932;4.442;2022-12-29T09:53:42;9.90;99.90
22418;DHT22;11376;50.932;4.442;2022-12-29T09:56:19;9.90;99.90
22418;DHT22;11376;50.932;4.442;2022-12-29T09:58:54;9.80;99.90
22418;DHT22;11376;50.932;4.442;2022-12-29T10:01:31;9.90;99.90
22418;DHT22;11376;50.932;4.442;2022-12-29T10:03:59;10.00;99.90
22418;DHT22;11376;50.932;4.442;2022-12-29T10:06:52;10.30;99.90
22418;DHT22;11376;50.932;4.442;2022-12-29T10:09:22;10.50;99.90
22418;DHT22;11376;50.932;4.442;2022-12-29T10:17:39;10.70;99.90
22418;DHT22;11376;50.932;4.442;2022-12-29T10:20:31;10.80;99.90
22418;DHT22;11376;50.932;4.442;2022-12-29T10:25:41;10.90;99.90
22418;DHT22;11376;50.932;4.442;2022-12-29T10:30:56;10.90;99.90
22418;DHT22;11376;50.932;4.442;2022-12-29T10:33:32;11.00;99.90
22418;DHT22;11376;50.932;4.442;2022-12-29T10:36:09;11.00;99.90
22418;DHT22;11376;50.932;4.442;2022-12-29T10:38:40;11.10;99.90
22418;DHT22;11376;50.932;4.442;2022-12-29T10:41:28;11.40;99.90
22418;DHT22;11376;50.932;4.442;2022-12-29T10:43:59;11.30;99.90
22418;DHT22;11376;50.932;4.442;2022-12-29T10:46:28;11.60;99.90
22418;DHT22;11376;50.932;4.442;2022-12-29T10:48:55;11.60;99.90
22418;DHT22;11376;50.932;4.442;2022-12-29T10:51:24;11.60;99.90
22418;DHT22;11376;50.932;4.442;2022-12-29T10:57:11;11.60;99.90
22418;DHT22;11376;50.932;4.442;2022-12-29T10:59:39;11.50;99.90
22418;DHT22;11376;50.932;4.442;2022-12-29T11:07:43;11.60;99.90
22418;DHT22;11376;50.932;4.442;2022-12-29T11:10:37;11.50;99.90
22418;DHT22;11376;50.932;4.442;2022-12-29T11:13:13;11.50;99.90
22418;DHT22;11376;50.932;4.442;2022-12-29T11:15:47;11.40;99.90
22418;DHT22;11376;50.932;4.442;2022-12-29T11:18:24;11.50;99.90
22418;DHT22;11376;50.932;4.442;2022-12-29T11:20:56;11.40;99.90
22418;DHT22;11376;50.932;4.442;2022-12-29T11:23:41;11.50;99.90
22418;DHT22;11376;50.932;4.442;2022-12-29T11:28:39;11.30;99.90
22418;DHT22;11376;50.932;4.442;2022-12-29T11:31:06;11.20;99.90
22418;DHT22;11376;50.932;4.442;2022-12-29T11:33:37;11.30;99.90
22418;DHT22;11376;50.932;4.442;2022-12-29T11:36:06;11.20;99.90
22418;DHT22;11376;50.932;4.442;2022-12-29T11:38:53;11.20;99.90
22418;DHT22;11376;50.932;4.442;2022-12-29T11:41:25;11.20;99.90
22418;DHT22;11376;50.932;4.442;2022-12-29T11:43:51;11.10;99.90
22418;DHT22;11376;50.932;4.442;2022-12-29T11:46:24;10.80;99.90
22418;DHT22;11376;50.932;4.442;2022-12-29T11:48:50;10.70;99.90
22418;DHT22;11376;50.932;4.442;2022-12-29T11:51:25;10.70;99.90
22418;DHT22;11376;50.932;4.442;2022-12-29T11:53:56;10.70;99.90
22418;DHT22;11376;50.932;4.442;2022-12-29T11:56:40;10.60;99.90
22418;DHT22;11376;50.932;4.442;2022-12-29T12:02:02;10.60;99.90
22418;DHT22;11376;50.932;4.442;2022-12-29T12:04:31;10.50;99.90
22418;DHT22;11376;50.932;4.442;2022-12-29T12:07:35;10.40;99.90
22418;DHT22;11376;50.932;4.442;2022-12-29T12:09:58;10.30;99.90
22418;DHT22;11376;50.932;4.442;2022-12-29T12:12:46;10.30;99.90
22418;DHT22;11376;50.932;4.442;2022-12-29T12:15:19;10.40;99.90
22418;DHT22;11376;50.932;4.442;2022-12-29T12:20:57;10.60;99.90
22418;DHT22;11376;50.932;4.442;2022-12-29T12:26:43;10.70;99.90
22418;DHT22;11376;50.932;4.442;2022-12-29T12:29:16;10.70;99.90
22418;DHT22;11376;50.932;4.442;2022-12-29T12:31:57;10.60;99.90
22418;DHT22;11376;50.932;4.442;2022-12-29T12:34:30;10.60;99.90
22418;DHT22;11376;50.932;4.442;2022-12-29T12:37:11;10.50;99.90
22418;DHT22;11376;50.932;4.442;2022-12-29T12:40:26;10.50;99.90
22418;DHT22;11376;50.932;4.442;2022-12-29T12:43:09;10.50;99.90
22418;DHT22;11376;50.932;4.442;2022-12-29T12:53:44;10.80;99.90
22418;DHT22;11376;50.932;4.442;2022-12-29T12:59:15;10.80;99.90
22418;DHT22;11376;50.932;4.442;2022-12-29T13:01:57;10.80;99.90
22418;DHT22;11376;50.932;4.442;2022-12-29T13:07:33;10.80;99.90
22418;DHT22;11376;50.932;4.442;2022-12-29T13:13:15;10.70;99.90
22418;DHT22;11376;50.932;4.442;2022-12-29T13:16:02;10.60;99.90
22418;DHT22;11376;50.932;4.442;2022-12-29T13:27:14;10.80;99.90
22418;DHT22;11376;50.932;4.442;2022-12-29T13:40:32;11.10;99.90
22418;DHT22;11376;50.932;4.442;2022-12-29T13:43:01;11.10;99.90
22418;DHT22;11376;50.932;4.442;2022-12-29T13:45:30;11.00;99.90
22418;DHT22;11376;50.932;4.442;2022-12-29T13:50:26;11.20;99.90
22418;DHT22;11376;50.932;4.442;2022-12-29T13:53:03;11.30;99.90
22418;DHT22;11376;50.932;4.442;2022-12-29T13:55:37;11.30;99.90
22418;DHT22;11376;50.932;4.442;2022-12-29T13:58:31;11.20;99.90
22418;DHT22;11376;50.932;4.442;2022-12-29T14:01:07;11.20;99.90
22418;DHT22;11376;50.932;4.442;2022-12-29T14:03:56;11.10;99.90
22418;DHT22;11376;50.932;4.442;2022-12-29T14:06:27;11.00;99.90
22418;DHT22;11376;50.932;4.442;2022-12-29T14:08:57;10.90;99.90
22418;DHT22;11376;50.932;4.442;2022-12-29T14:11:33;10.80;99.90
22418;DHT22;11376;50.932;4.442;2022-12-29T14:14:16;10.90;99.90
22418;DHT22;11376;50.932;4.442;2022-12-29T14:16:43;10.90;99.90
22418;DHT22;11376;50.932;4.442;2022-12-29T14:19:16;10.80;99.90
22418;DHT22;11376;50.932;4.442;2022-12-29T14:22:09;10.70;99.90
22418;DHT22;11376;50.932;4.442;2022-12-29T14:34:56;9.80;99.90
22418;DHT22;11376;50.932;4.442;2022-12-29T14:39:47;9.10;99.90
22418;DHT22;11376;50.932;4.442;2022-12-29T14:42:16;8.80;99.90
22418;DHT22;11376;50.932;4.442;2022-12-29T14:44:51;8.60;99.90
22418;DHT22;11376;50.932;4.442;2022-12-29T14:47:37;8.50;99.90
22418;DHT22;11376;50.932;4.442;2022-12-29T14:50:18;8.40;99.90
22418;DHT22;11376;50.932;4.442;2022-12-29T14:52:59;8.40;99.90
22418;DHT22;11376;50.932;4.442;2022-12-29T14:55:37;8.30;99.90
22418;DHT22;11376;50.932;4.442;2022-12-29T14:58:06;8.30;99.90
22418;DHT22;11376;50.932;4.442;2022-12-29T15:00:38;8.30;99.90
22418;DHT22;11376;50.932;4.442;2022-12-29T15:03:19;8.40;99.90
22418;DHT22;11376;50.932;4.442;2022-12-29T15:08:22;8.30;99.90
22418;DHT22;11376;50.932;4.442;2022-12-29T15:13:32;8.30;99.90
22418;DHT22;11376;50.932;4.442;2022-12-29T15:15:58;8.20;99.90
22418;DHT22;11376;50.932;4.442;2022-12-29T15:18:29;8.10;99.90
22418;DHT22;11376;50.932;4.442;2022-12-29T15:21:04;8.00;99.90
22418;DHT22;11376;50.932;4.442;2022-12-29T15:23:32;8.00;99.90
22418;DHT22;11376;50.932;4.442;2022-12-29T15:26:05;8.00;99.90
22418;DHT22;11376;50.932;4.442;2022-12-29T15:28:43;7.80;99.90
22418;DHT22;11376;50.932;4.442;2022-12-29T15:31:17;7.80;99.90
22418;DHT22;11376;50.932;4.442;2022-12-29T15:33:46;7.80;99.90
22418;DHT22;11376;50.932;4.442;2022-12-29T15:36:24;7.90;99.90
22418;DHT22;11376;50.932;4.442;2022-12-29T15:38:50;7.90;99.90
22418;DHT22;11376;50.932;4.442;2022-12-29T15:41:24;7.90;99.90
22418;DHT22;11376;50.932;4.442;2022-12-29T15:46:35;8.00;99.90
22418;DHT22;11376;50.932;4.442;2022-12-29T15:49:06;8.00;99.90
22418;DHT22;11376;50.932;4.442;2022-12-29T15:51:35;8.10;99.90
22418;DHT22;11376;50.932;4.442;2022-12-29T15:54:02;8.10;99.90
22418;DHT22;11376;50.932;4.442;2022-12-29T15:56:29;8.20;99.90
22418;DHT22;11376;50.932;4.442;2022-12-29T15:58:55;8.20;99.90
22418;DHT22;11376;50.932;4.442;2022-12-29T16:01:30;8.20;99.90
22418;DHT22;11376;50.932;4.442;2022-12-29T16:03:58;8.20;99.90
22418;DHT22;11376;50.932;4.442;2022-12-29T16:09:07;8.10;99.90
22418;DHT22;11376;50.932;4.442;2022-12-29T16:11:41;8.10;99.90
22418;DHT22;11376;50.932;4.442;2022-12-29T16:14:14;8.10;99.90
22418;DHT22;11376;50.932;4.442;2022-12-29T16:16:42;8.10;99.90
22418;DHT22;11376;50.932;4.442;2022-12-29T16:19:39;8.00;99.90
22418;DHT22;11376;50.932;4.442;2022-12-29T16:22:12;8.00;99.90
22418;DHT22;11376;50.932;4.442;2022-12-29T16:24:41;8.00;99.90
22418;DHT22;11376;50.932;4.442;2022-12-29T16:27:13;8.10;99.90
22418;DHT22;11376;50.932;4.442;2022-12-29T16:29:41;8.10;99.90
22418;DHT22;11376;50.932;4.442;2022-12-29T16:32:24;8.20;99.90
22418;DHT22;11376;50.932;4.442;2022-12-29T16:34:51;8.10;99.90
22418;DHT22;11376;50.932;4.442;2022-12-29T16:37:33;8.20;99.90
22418;DHT22;11376;50.932;4.442;2022-12-29T16:48:09;8.10;99.90
22418;DHT22;11376;50.932;4.442;2022-12-29T16:50:38;8.20;99.90
22418;DHT22;11376;50.932;4.442;2022-12-29T16:53:05;8.10;99.90
22418;DHT22;11376;50.932;4.442;2022-12-29T16:55:32;8.30;99.90
22418;DHT22;11376;50.932;4.442;2022-12-29T16:57:58;8.30;99.90
22418;DHT22;11376;50.932;4.442;2022-12-29T17:00:26;8.30;99.90
22418;DHT22;11376;50.932;4.442;2022-12-29T17:02:55;8.30;99.90
22418;DHT22;11376;50.932;4.442;2022-12-29T17:05:22;8.30;99.90
22418;DHT22;11376;50.932;4.442;2022-12-29T17:07:48;8.30;99.90
22418;DHT22;11376;50.932;4.442;2022-12-29T17:10:14;8.30;99.90
22418;DHT22;11376;50.932;4.442;2022-12-29T17:12:41;8.30;99.90
22418;DHT22;11376;50.932;4.442;2022-12-29T17:15:13;8.30;99.90
22418;DHT22;11376;50.932;4.442;2022-12-29T17:17:44;8.40;99.90
22418;DHT22;11376;50.932;4.442;2022-12-29T17:20:15;8.40;99.90
22418;DHT22;11376;50.932;4.442;2022-12-29T17:22:40;8.40;99.90
22418;DHT22;11376;50.932;4.442;2022-12-29T17:25:10;8.40;99.90
22418;DHT22;11376;50.932;4.442;2022-12-29T17:27:43;8.40;99.90
22418;DHT22;11376;50.932;4.442;2022-12-29T17:30:14;8.30;99.90
22418;DHT22;11376;50.932;4.442;2022-12-29T17:32:41;8.40;99.90
22418;DHT22;11376;50.932;4.442;2022-12-29T17:35:15;8.40;99.90
22418;DHT22;11376;50.932;4.442;2022-12-29T17:37:42;8.40;99.90
22418;DHT22;11376;50.932;4.442;2022-12-29T17:40:13;8.30;99.90
22418;DHT22;11376;50.932;4.442;2022-12-29T17:42:44;8.30;99.90
22418;DHT22;11376;50.932;4.442;2022-12-29T17:45:26;8.40;99.90
22418;DHT22;11376;50.932;4.442;2022-12-29T17:47:52;8.40;99.90
22418;DHT22;11376;50.932;4.442;2022-12-29T17:50:21;8.40;99.90
22418;DHT22;11376;50.932;4.442;2022-12-29T17:52:53;8.40;99.90
22418;DHT22;11376;50.932;4.442;2022-12-29T17:55:20;8.40;99.90
22418;DHT22;11376;50.932;4.442;2022-12-29T17:57:46;8.40;99.90
22418;DHT22;11376;50.932;4.442;2022-12-29T18:00:28;8.40;99.90
22418;DHT22;11376;50.932;4.442;2022-12-29T18:02:55;8.40;99.90
22418;DHT22;11376;50.932;4.442;2022-12-29T18:05:28;8.40;99.90
22418;DHT22;11376;50.932;4.442;2022-12-29T18:07:57;8.40;99.90
22418;DHT22;11376;50.932;4.442;2022-12-29T18:10:25;8.40;99.90
22418;DHT22;11376;50.932;4.442;2022-12-29T18:12:53;8.40;99.90
22418;DHT22;11376;50.932;4.442;2022-12-29T18:15:31;8.40;99.90